sensor_id;sensor_type;location;lat;lon;timestamp;P1;durP1;ratioP1;P2;durP2;ratioP2
49314;SDS011;36672;50.710;12.498;2023-02-04T00:00:22;10.80;;;1.95;;
49314;SDS011;36672;50.710;12.498;2023-02-04T00:02:48;9.75;;;2.17;;
49314;SDS011;36672;50.710;12.498;2023-02-04T00:05:15;7.40;;;2.00;;
49314;SDS011;36672;50.710;12.498;2023-02-04T00:07:41;11.80;;;2.35;;
49314;SDS011;36672;50.710;12.498;2023-02-04T00:10:07;8.65;;;1.92;;
49314;SDS011;36672;50.710;12.498;2023-02-04T00:12:33;9.32;;;2.08;;
49314;SDS011;36672;50.710;12.498;2023-02-04T00:14:58;9.13;;;1.88;;
49314;SDS011;36672;50.710;12.498;2023-02-04T00:17:24;6.68;;;1.30;;
49314;SDS011;36672;50.710;12.498;2023-02-04T00:19:49;7.18;;;1.98;;
49314;SDS011;36672;50.710;12.498;2023-02-04T00:22:15;8.80;;;1.95;;
49314;SDS011;36672;50.710;12.498;2023-02-04T00:24:41;7.07;;;1.75;;
49314;SDS011;36672;50.710;12.498;2023-02-04T00:27:12;13.27;;;2.20;;
49314;SDS011;36672;50.710;12.498;2023-02-04T00:29:38;8.63;;;1.70;;
49314;SDS011;36672;50.710;12.498;2023-02-04T00:32:03;13.75;;;2.10;;
49314;SDS011;36672;50.710;12.498;2023-02-04T00:34:28;12.43;;;1.80;;
49314;SDS011;36672;50.710;12.498;2023-02-04T00:36:54;8.43;;;2.00;;
49314;SDS011;36672;50.710;12.498;2023-02-04T00:39:19;7.78;;;1.67;;
49314;SDS011;36672;50.710;12.498;2023-02-04T00:41:44;8.63;;;1.70;;
49314;SDS011;36672;50.710;12.498;2023-02-04T00:44:10;6.13;;;1.40;;
49314;SDS011;36672;50.710;12.498;2023-02-04T00:46:35;8.18;;;1.92;;
49314;SDS011;36672;50.710;12.498;2023-02-04T00:49:00;11.52;;;1.67;;
49314;SDS011;36672;50.710;12.498;2023-02-04T00:51:25;9.85;;;2.13;;
49314;SDS011;36672;50.710;12.498;2023-02-04T00:53:51;9.93;;;1.80;;
49314;SDS011;36672;50.710;12.498;2023-02-04T00:56:16;9.60;;;1.80;;
49314;SDS011;36672;50.710;12.498;2023-02-04T00:58:41;8.57;;;1.77;;
49314;SDS011;36672;50.710;12.498;2023-02-04T01:01:07;9.23;;;1.80;;
49314;SDS011;36672;50.710;12.498;2023-02-04T01:03:32;6.95;;;2.00;;
49314;SDS011;36672;50.710;12.498;2023-02-04T01:05:57;6.20;;;1.00;;
49314;SDS011;36672;50.710;12.498;2023-02-04T01:08:23;3.97;;;0.80;;
49314;SDS011;36672;50.710;12.498;2023-02-04T01:10:48;1.38;;;0.40;;
49314;SDS011;36672;50.710;12.498;2023-02-04T01:13:13;1.02;;;0.40;;
49314;SDS011;36672;50.710;12.498;2023-02-04T01:15:39;1.13;;;0.47;;
49314;SDS011;36672;50.710;12.498;2023-02-04T01:18:04;0.50;;;0.30;;
49314;SDS011;36672;50.710;12.498;2023-02-04T01:20:29;1.77;;;0.50;;
49314;SDS011;36672;50.710;12.498;2023-02-04T01:22:55;1.67;;;0.52;;
49314;SDS011;36672;50.710;12.498;2023-02-04T01:25:20;2.33;;;0.60;;
49314;SDS011;36672;50.710;12.498;2023-02-04T01:27:45;1.00;;;0.80;;
49314;SDS011;36672;50.710;12.498;2023-02-04T01:30:11;1.70;;;0.55;;
49314;SDS011;36672;50.710;12.498;2023-02-04T01:32:38;0.98;;;0.73;;
49314;SDS011;36672;50.710;12.498;2023-02-04T01:35:04;1.08;;;0.60;;
49314;SDS011;36672;50.710;12.498;2023-02-04T01:37:29;2.75;;;0.98;;
49314;SDS011;36672;50.710;12.498;2023-02-04T01:39:55;1.10;;;0.70;;
49314;SDS011;36672;50.710;12.498;2023-02-04T01:42:20;1.70;;;0.93;;
49314;SDS011;36672;50.710;12.498;2023-02-04T01:44:45;1.48;;;0.60;;
49314;SDS011;36672;50.710;12.498;2023-02-04T01:47:11;2.47;;;0.70;;
49314;SDS011;36672;50.710;12.498;2023-02-04T01:49:37;1.65;;;0.80;;
49314;SDS011;36672;50.710;12.498;2023-02-04T01:52:02;0.95;;;0.80;;
49314;SDS011;36672;50.710;12.498;2023-02-04T01:54:28;1.70;;;0.70;;
49314;SDS011;36672;50.710;12.498;2023-02-04T01:56:54;2.33;;;0.85;;
49314;SDS011;36672;50.710;12.498;2023-02-04T01:59:19;2.97;;;1.05;;
49314;SDS011;36672;50.710;12.498;2023-02-04T02:01:46;2.50;;;0.93;;
49314;SDS011;36672;50.710;12.498;2023-02-04T02:04:17;1.83;;;0.90;;
49314;SDS011;36672;50.710;12.498;2023-02-04T02:06:52;1.98;;;1.10;;
49314;SDS011;36672;50.710;12.498;2023-02-04T02:09:22;2.80;;;1.50;;
49314;SDS011;36672;50.710;12.498;2023-02-04T02:11:49;1.65;;;1.10;;
49314;SDS011;36672;50.710;12.498;2023-02-04T02:14:14;1.48;;;1.27;;
49314;SDS011;36672;50.710;12.498;2023-02-04T02:16:40;1.58;;;0.98;;
49314;SDS011;36672;50.710;12.498;2023-02-04T02:19:05;1.45;;;1.13;;
49314;SDS011;36672;50.710;12.498;2023-02-04T02:21:38;2.65;;;1.20;;
49314;SDS011;36672;50.710;12.498;2023-02-04T02:24:30;1.85;;;1.33;;
49314;SDS011;36672;50.710;12.498;2023-02-04T02:26:58;3.55;;;1.45;;
49314;SDS011;36672;50.710;12.498;2023-02-04T02:29:26;3.08;;;1.73;;
49314;SDS011;36672;50.710;12.498;2023-02-04T02:31:52;3.33;;;1.55;;
49314;SDS011;36672;50.710;12.498;2023-02-04T02:34:21;2.38;;;1.50;;
49314;SDS011;36672;50.710;12.498;2023-02-04T02:36:48;3.08;;;1.50;;
49314;SDS011;36672;50.710;12.498;2023-02-04T02:39:14;2.90;;;1.35;;
49314;SDS011;36672;50.710;12.498;2023-02-04T02:41:39;3.03;;;1.52;;
49314;SDS011;36672;50.710;12.498;2023-02-04T02:44:05;3.63;;;1.50;;
49314;SDS011;36672;50.710;12.498;2023-02-04T02:46:31;4.57;;;1.85;;
49314;SDS011;36672;50.710;12.498;2023-02-04T02:48:57;4.35;;;1.73;;
49314;SDS011;36672;50.710;12.498;2023-02-04T02:51:22;1.77;;;1.40;;
49314;SDS011;36672;50.710;12.498;2023-02-04T02:53:48;7.47;;;1.60;;
49314;SDS011;36672;50.710;12.498;2023-02-04T02:56:13;2.72;;;1.83;;
49314;SDS011;36672;50.710;12.498;2023-02-04T02:58:39;3.80;;;1.80;;
49314;SDS011;36672;50.710;12.498;2023-02-04T03:01:05;1.45;;;1.23;;
49314;SDS011;36672;50.710;12.498;2023-02-04T03:03:33;2.92;;;1.30;;
49314;SDS011;36672;50.710;12.498;2023-02-04T03:06:05;1.83;;;1.17;;
49314;SDS011;36672;50.710;12.498;2023-02-04T03:08:36;1.95;;;1.20;;
49314;SDS011;36672;50.710;12.498;2023-02-04T03:11:01;1.70;;;1.20;;
49314;SDS011;36672;50.710;12.498;2023-02-04T03:13:27;3.78;;;1.58;;
49314;SDS011;36672;50.710;12.498;2023-02-04T03:15:53;3.38;;;1.20;;
49314;SDS011;36672;50.710;12.498;2023-02-04T03:18:19;1.25;;;1.05;;
49314;SDS011;36672;50.710;12.498;2023-02-04T03:20:46;2.78;;;1.45;;
49314;SDS011;36672;50.710;12.498;2023-02-04T03:23:12;1.45;;;1.10;;
49314;SDS011;36672;50.710;12.498;2023-02-04T03:25:38;2.38;;;1.17;;
49314;SDS011;36672;50.710;12.498;2023-02-04T03:28:03;1.30;;;0.98;;
49314;SDS011;36672;50.710;12.498;2023-02-04T03:30:29;1.08;;;0.88;;
49314;SDS011;36672;50.710;12.498;2023-02-04T03:32:55;2.05;;;1.10;;
49314;SDS011;36672;50.710;12.498;2023-02-04T03:35:20;3.25;;;0.98;;
49314;SDS011;36672;50.710;12.498;2023-02-04T03:37:46;1.75;;;1.10;;
49314;SDS011;36672;50.710;12.498;2023-02-04T03:40:11;9.10;;;1.42;;
49314;SDS011;36672;50.710;12.498;2023-02-04T03:42:37;1.50;;;0.90;;
49314;SDS011;36672;50.710;12.498;2023-02-04T03:45:03;1.27;;;1.00;;
49314;SDS011;36672;50.710;12.498;2023-02-04T03:47:29;1.30;;;1.00;;
49314;SDS011;36672;50.710;12.498;2023-02-04T03:49:54;1.95;;;1.10;;
49314;SDS011;36672;50.710;12.498;2023-02-04T03:52:19;2.05;;;1.05;;
49314;SDS011;36672;50.710;12.498;2023-02-04T03:54:45;2.10;;;1.20;;
49314;SDS011;36672;50.710;12.498;2023-02-04T03:57:11;1.98;;;1.10;;
49314;SDS011;36672;50.710;12.498;2023-02-04T03:59:37;2.55;;;1.35;;
49314;SDS011;36672;50.710;12.498;2023-02-04T04:02:02;3.67;;;1.35;;
49314;SDS011;36672;50.710;12.498;2023-02-04T04:04:28;3.38;;;1.30;;
49314;SDS011;36672;50.710;12.498;2023-02-04T04:06:53;2.10;;;1.20;;
49314;SDS011;36672;50.710;12.498;2023-02-04T04:09:18;2.35;;;1.10;;
49314;SDS011;36672;50.710;12.498;2023-02-04T04:11:44;2.85;;;1.20;;
49314;SDS011;36672;50.710;12.498;2023-02-04T04:14:09;2.63;;;1.20;;
49314;SDS011;36672;50.710;12.498;2023-02-04T04:16:34;1.90;;;1.10;;
49314;SDS011;36672;50.710;12.498;2023-02-04T04:18:59;1.95;;;1.27;;
49314;SDS011;36672;50.710;12.498;2023-02-04T04:21:25;2.10;;;1.20;;
49314;SDS011;36672;50.710;12.498;2023-02-04T04:23:50;1.80;;;1.20;;
49314;SDS011;36672;50.710;12.498;2023-02-04T04:26:15;1.65;;;1.10;;
49314;SDS011;36672;50.710;12.498;2023-02-04T04:28:41;2.83;;;1.15;;
49314;SDS011;36672;50.710;12.498;2023-02-04T04:31:07;1.75;;;1.10;;
49314;SDS011;36672;50.710;12.498;2023-02-04T04:33:32;1.58;;;1.02;;
49314;SDS011;36672;50.710;12.498;2023-02-04T04:35:57;2.33;;;1.15;;
49314;SDS011;36672;50.710;12.498;2023-02-04T04:38:23;3.08;;;1.05;;
49314;SDS011;36672;50.710;12.498;2023-02-04T04:40:48;1.50;;;1.15;;
49314;SDS011;36672;50.710;12.498;2023-02-04T04:43:13;2.22;;;1.40;;
49314;SDS011;36672;50.710;12.498;2023-02-04T04:45:39;1.45;;;1.02;;
49314;SDS011;36672;50.710;12.498;2023-02-04T04:48:04;2.65;;;1.20;;
49314;SDS011;36672;50.710;12.498;2023-02-04T04:50:29;1.38;;;1.10;;
49314;SDS011;36672;50.710;12.498;2023-02-04T04:52:55;1.48;;;1.10;;
49314;SDS011;36672;50.710;12.498;2023-02-04T04:55:20;2.78;;;1.40;;
49314;SDS011;36672;50.710;12.498;2023-02-04T04:57:45;1.65;;;1.10;;
49314;SDS011;36672;50.710;12.498;2023-02-04T05:00:13;4.55;;;1.30;;
49314;SDS011;36672;50.710;12.498;2023-02-04T05:02:40;3.80;;;1.15;;
49314;SDS011;36672;50.710;12.498;2023-02-04T05:05:06;1.92;;;1.13;;
49314;SDS011;36672;50.710;12.498;2023-02-04T05:07:31;2.05;;;1.20;;
49314;SDS011;36672;50.710;12.498;2023-02-04T05:09:57;2.03;;;1.13;;
49314;SDS011;36672;50.710;12.498;2023-02-04T05:12:22;1.55;;;0.82;;
49314;SDS011;36672;50.710;12.498;2023-02-04T05:14:48;2.45;;;1.00;;
49314;SDS011;36672;50.710;12.498;2023-02-04T05:17:13;1.52;;;0.93;;
49314;SDS011;36672;50.710;12.498;2023-02-04T05:19:38;1.88;;;0.98;;
49314;SDS011;36672;50.710;12.498;2023-02-04T05:22:04;2.17;;;1.10;;
49314;SDS011;36672;50.710;12.498;2023-02-04T05:24:29;2.85;;;1.33;;
49314;SDS011;36672;50.710;12.498;2023-02-04T05:26:54;1.67;;;1.15;;
49314;SDS011;36672;50.710;12.498;2023-02-04T05:29:20;1.83;;;1.02;;
49314;SDS011;36672;50.710;12.498;2023-02-04T05:31:45;2.28;;;1.23;;
49314;SDS011;36672;50.710;12.498;2023-02-04T05:34:11;3.15;;;1.17;;
49314;SDS011;36672;50.710;12.498;2023-02-04T05:36:36;1.33;;;1.15;;
49314;SDS011;36672;50.710;12.498;2023-02-04T05:39:01;2.30;;;1.38;;
49314;SDS011;36672;50.710;12.498;2023-02-04T05:41:27;2.65;;;1.40;;
49314;SDS011;36672;50.710;12.498;2023-02-04T05:43:52;2.15;;;1.30;;
49314;SDS011;36672;50.710;12.498;2023-02-04T05:46:17;2.03;;;1.20;;
49314;SDS011;36672;50.710;12.498;2023-02-04T05:48:43;3.33;;;1.52;;
49314;SDS011;36672;50.710;12.498;2023-02-04T05:51:08;2.80;;;1.15;;
49314;SDS011;36672;50.710;12.498;2023-02-04T05:53:34;2.08;;;1.75;;
49314;SDS011;36672;50.710;12.498;2023-02-04T05:55:59;1.60;;;1.17;;
49314;SDS011;36672;50.710;12.498;2023-02-04T05:58:24;2.03;;;1.30;;
49314;SDS011;36672;50.710;12.498;2023-02-04T06:00:57;3.22;;;1.50;;
49314;SDS011;36672;50.710;12.498;2023-02-04T06:03:22;2.28;;;1.40;;
49314;SDS011;36672;50.710;12.498;2023-02-04T06:05:47;3.25;;;1.90;;
49314;SDS011;36672;50.710;12.498;2023-02-04T06:08:13;3.75;;;1.40;;
49314;SDS011;36672;50.710;12.498;2023-02-04T06:10:39;3.22;;;1.50;;
49314;SDS011;36672;50.710;12.498;2023-02-04T06:13:05;2.20;;;1.35;;
49314;SDS011;36672;50.710;12.498;2023-02-04T06:15:30;3.28;;;1.50;;
49314;SDS011;36672;50.710;12.498;2023-02-04T06:17:55;3.75;;;1.70;;
49314;SDS011;36672;50.710;12.498;2023-02-04T06:20:22;3.30;;;1.65;;
49314;SDS011;36672;50.710;12.498;2023-02-04T06:22:47;2.25;;;1.67;;
49314;SDS011;36672;50.710;12.498;2023-02-04T06:25:15;1.73;;;1.33;;
49314;SDS011;36672;50.710;12.498;2023-02-04T06:27:41;2.20;;;1.60;;
49314;SDS011;36672;50.710;12.498;2023-02-04T06:30:07;2.85;;;1.27;;
49314;SDS011;36672;50.710;12.498;2023-02-04T06:32:34;3.55;;;1.55;;
49314;SDS011;36672;50.710;12.498;2023-02-04T06:35:00;2.08;;;1.40;;
49314;SDS011;36672;50.710;12.498;2023-02-04T06:37:25;3.60;;;1.45;;
49314;SDS011;36672;50.710;12.498;2023-02-04T06:39:50;1.65;;;1.20;;
49314;SDS011;36672;50.710;12.498;2023-02-04T06:42:18;1.92;;;1.52;;
49314;SDS011;36672;50.710;12.498;2023-02-04T06:44:43;2.63;;;1.50;;
49314;SDS011;36672;50.710;12.498;2023-02-04T06:47:09;2.28;;;1.30;;
49314;SDS011;36672;50.710;12.498;2023-02-04T06:49:34;2.30;;;1.42;;
49314;SDS011;36672;50.710;12.498;2023-02-04T06:51:59;2.15;;;1.42;;
49314;SDS011;36672;50.710;12.498;2023-02-04T06:54:25;3.35;;;1.35;;
49314;SDS011;36672;50.710;12.498;2023-02-04T06:56:50;1.83;;;1.27;;
49314;SDS011;36672;50.710;12.498;2023-02-04T06:59:15;1.58;;;0.90;;
49314;SDS011;36672;50.710;12.498;2023-02-04T07:01:42;2.08;;;1.05;;
49314;SDS011;36672;50.710;12.498;2023-02-04T07:04:07;1.85;;;1.15;;
49314;SDS011;36672;50.710;12.498;2023-02-04T07:06:32;2.90;;;1.15;;
49314;SDS011;36672;50.710;12.498;2023-02-04T07:08:57;5.22;;;1.40;;
49314;SDS011;36672;50.710;12.498;2023-02-04T07:11:23;1.60;;;1.35;;
49314;SDS011;36672;50.710;12.498;2023-02-04T07:13:48;2.53;;;1.20;;
49314;SDS011;36672;50.710;12.498;2023-02-04T07:16:13;2.10;;;1.08;;
49314;SDS011;36672;50.710;12.498;2023-02-04T07:18:39;2.00;;;1.27;;
49314;SDS011;36672;50.710;12.498;2023-02-04T07:21:04;2.25;;;1.27;;
49314;SDS011;36672;50.710;12.498;2023-02-04T07:23:30;1.20;;;1.10;;
49314;SDS011;36672;50.710;12.498;2023-02-04T07:25:55;2.67;;;0.88;;
49314;SDS011;36672;50.710;12.498;2023-02-04T07:28:23;1.92;;;0.82;;
49314;SDS011;36672;50.710;12.498;2023-02-04T07:30:49;1.95;;;1.08;;
49314;SDS011;36672;50.710;12.498;2023-02-04T07:33:14;1.35;;;0.90;;
49314;SDS011;36672;50.710;12.498;2023-02-04T07:35:39;1.90;;;0.80;;
49314;SDS011;36672;50.710;12.498;2023-02-04T07:38:05;1.38;;;0.70;;
49314;SDS011;36672;50.710;12.498;2023-02-04T07:40:31;1.52;;;1.10;;
49314;SDS011;36672;50.710;12.498;2023-02-04T07:42:56;3.55;;;1.00;;
49314;SDS011;36672;50.710;12.498;2023-02-04T07:45:22;1.50;;;1.00;;
49314;SDS011;36672;50.710;12.498;2023-02-04T07:47:47;1.35;;;0.80;;
49314;SDS011;36672;50.710;12.498;2023-02-04T07:50:13;1.27;;;0.88;;
49314;SDS011;36672;50.710;12.498;2023-02-04T07:52:39;3.70;;;0.85;;
49314;SDS011;36672;50.710;12.498;2023-02-04T07:55:06;2.08;;;0.82;;
49314;SDS011;36672;50.710;12.498;2023-02-04T07:57:31;2.05;;;0.80;;
49314;SDS011;36672;50.710;12.498;2023-02-04T07:59:57;1.98;;;0.90;;
49314;SDS011;36672;50.710;12.498;2023-02-04T08:02:23;3.90;;;0.82;;
49314;SDS011;36672;50.710;12.498;2023-02-04T08:04:49;1.58;;;0.80;;
49314;SDS011;36672;50.710;12.498;2023-02-04T08:07:14;0.93;;;0.70;;
49314;SDS011;36672;50.710;12.498;2023-02-04T08:09:40;1.60;;;0.88;;
49314;SDS011;36672;50.710;12.498;2023-02-04T08:12:05;3.85;;;1.90;;
49314;SDS011;36672;50.710;12.498;2023-02-04T08:14:30;2.00;;;1.20;;
49314;SDS011;36672;50.710;12.498;2023-02-04T08:16:56;1.92;;;0.85;;
49314;SDS011;36672;50.710;12.498;2023-02-04T08:19:21;1.92;;;1.05;;
49314;SDS011;36672;50.710;12.498;2023-02-04T08:21:47;1.75;;;1.10;;
49314;SDS011;36672;50.710;12.498;2023-02-04T08:24:13;2.42;;;1.23;;
49314;SDS011;36672;50.710;12.498;2023-02-04T08:26:39;1.17;;;0.70;;
49314;SDS011;36672;50.710;12.498;2023-02-04T08:29:06;1.80;;;0.85;;
49314;SDS011;36672;50.710;12.498;2023-02-04T08:31:31;3.92;;;0.98;;
49314;SDS011;36672;50.710;12.498;2023-02-04T08:33:57;2.35;;;1.00;;
49314;SDS011;36672;50.710;12.498;2023-02-04T08:36:22;2.03;;;1.13;;
49314;SDS011;36672;50.710;12.498;2023-02-04T08:38:48;2.28;;;1.10;;
49314;SDS011;36672;50.710;12.498;2023-02-04T08:41:13;5.30;;;2.00;;
49314;SDS011;36672;50.710;12.498;2023-02-04T08:43:39;2.40;;;1.42;;
49314;SDS011;36672;50.710;12.498;2023-02-04T08:46:04;2.17;;;1.95;;
49314;SDS011;36672;50.710;12.498;2023-02-04T08:48:30;1.83;;;1.20;;
49314;SDS011;36672;50.710;12.498;2023-02-04T08:50:56;2.13;;;1.00;;
49314;SDS011;36672;50.710;12.498;2023-02-04T08:53:22;1.38;;;0.93;;
49314;SDS011;36672;50.710;12.498;2023-02-04T08:55:47;1.70;;;0.82;;
49314;SDS011;36672;50.710;12.498;2023-02-04T08:58:12;1.17;;;0.90;;
49314;SDS011;36672;50.710;12.498;2023-02-04T09:00:38;3.08;;;1.00;;
49314;SDS011;36672;50.710;12.498;2023-02-04T09:03:03;1.33;;;0.88;;
49314;SDS011;36672;50.710;12.498;2023-02-04T09:05:28;1.30;;;0.80;;
49314;SDS011;36672;50.710;12.498;2023-02-04T09:07:54;5.47;;;0.90;;
49314;SDS011;36672;50.710;12.498;2023-02-04T09:10:19;1.75;;;1.10;;
49314;SDS011;36672;50.710;12.498;2023-02-04T09:12:44;3.00;;;1.17;;
49314;SDS011;36672;50.710;12.498;2023-02-04T09:15:10;1.40;;;0.90;;
49314;SDS011;36672;50.710;12.498;2023-02-04T09:17:36;3.13;;;1.40;;
49314;SDS011;36672;50.710;12.498;2023-02-04T09:20:03;5.03;;;1.10;;
49314;SDS011;36672;50.710;12.498;2023-02-04T09:22:29;2.85;;;0.90;;
49314;SDS011;36672;50.710;12.498;2023-02-04T09:24:54;2.47;;;0.90;;
49314;SDS011;36672;50.710;12.498;2023-02-04T09:27:20;1.48;;;0.95;;
49314;SDS011;36672;50.710;12.498;2023-02-04T09:29:45;2.22;;;0.98;;
49314;SDS011;36672;50.710;12.498;2023-02-04T09:32:11;1.73;;;1.00;;
49314;SDS011;36672;50.710;12.498;2023-02-04T09:34:36;3.30;;;1.27;;
49314;SDS011;36672;50.710;12.498;2023-02-04T09:37:02;3.13;;;1.00;;
49314;SDS011;36672;50.710;12.498;2023-02-04T09:39:27;2.63;;;1.33;;
49314;SDS011;36672;50.710;12.498;2023-02-04T09:41:53;1.90;;;1.20;;
49314;SDS011;36672;50.710;12.498;2023-02-04T09:44:19;3.05;;;1.20;;
49314;SDS011;36672;50.710;12.498;2023-02-04T09:46:48;2.17;;;1.10;;
49314;SDS011;36672;50.710;12.498;2023-02-04T09:49:15;1.85;;;1.00;;
49314;SDS011;36672;50.710;12.498;2023-02-04T09:51:40;1.42;;;0.93;;
49314;SDS011;36672;50.710;12.498;2023-02-04T09:54:10;2.47;;;0.90;;
49314;SDS011;36672;50.710;12.498;2023-02-04T09:56:38;3.42;;;1.23;;
49314;SDS011;36672;50.710;12.498;2023-02-04T09:59:13;1.92;;;1.00;;
49314;SDS011;36672;50.710;12.498;2023-02-04T10:01:40;1.63;;;0.70;;
49314;SDS011;36672;50.710;12.498;2023-02-04T10:04:08;1.83;;;1.08;;
49314;SDS011;36672;50.710;12.498;2023-02-04T10:06:37;1.23;;;0.80;;
49314;SDS011;36672;50.710;12.498;2023-02-04T10:09:03;2.08;;;1.00;;
49314;SDS011;36672;50.710;12.498;2023-02-04T10:11:30;1.52;;;0.80;;
49314;SDS011;36672;50.710;12.498;2023-02-04T10:14:00;3.72;;;0.95;;
49314;SDS011;36672;50.710;12.498;2023-02-04T10:16:29;1.15;;;0.80;;
49314;SDS011;36672;50.710;12.498;2023-02-04T10:18:57;3.22;;;1.20;;
49314;SDS011;36672;50.710;12.498;2023-02-04T10:21:28;2.25;;;0.90;;
49314;SDS011;36672;50.710;12.498;2023-02-04T10:23:57;3.80;;;0.85;;
49314;SDS011;36672;50.710;12.498;2023-02-04T10:26:25;4.72;;;0.90;;
49314;SDS011;36672;50.710;12.498;2023-02-04T10:29:01;2.90;;;0.75;;
49314;SDS011;36672;50.710;12.498;2023-02-04T10:34:18;2.33;;;0.80;;
49314;SDS011;36672;50.710;12.498;2023-02-04T10:36:48;1.45;;;0.65;;
49314;SDS011;36672;50.710;12.498;2023-02-04T10:41:53;2.57;;;0.70;;
49314;SDS011;36672;50.710;12.498;2023-02-04T10:44:25;1.45;;;0.70;;
49314;SDS011;36672;50.710;12.498;2023-02-04T10:47:28;3.28;;;1.10;;
49314;SDS011;36672;50.710;12.498;2023-02-04T10:50:09;0.75;;;0.70;;
49314;SDS011;36672;50.710;12.498;2023-02-04T10:52:42;1.52;;;0.68;;
49314;SDS011;36672;50.710;12.498;2023-02-04T10:55:12;1.38;;;0.70;;
49314;SDS011;36672;50.710;12.498;2023-02-04T10:57:41;5.38;;;1.42;;
49314;SDS011;36672;50.710;12.498;2023-02-04T11:00:18;1.60;;;1.00;;
49314;SDS011;36672;50.710;12.498;2023-02-04T11:05:30;1.70;;;0.70;;
49314;SDS011;36672;50.710;12.498;2023-02-04T11:07:57;0.82;;;0.63;;
49314;SDS011;36672;50.710;12.498;2023-02-04T11:10:24;3.28;;;1.00;;
49314;SDS011;36672;50.710;12.498;2023-02-04T11:15:39;1.92;;;0.60;;
49314;SDS011;36672;50.710;12.498;2023-02-04T11:20:45;1.20;;;0.80;;
49314;SDS011;36672;50.710;12.498;2023-02-04T11:26:08;1.65;;;0.70;;
49314;SDS011;36672;50.710;12.498;2023-02-04T11:33:43;4.10;;;0.63;;
49314;SDS011;36672;50.710;12.498;2023-02-04T11:36:09;1.70;;;0.80;;
49314;SDS011;36672;50.710;12.498;2023-02-04T11:38:37;1.55;;;0.80;;
49314;SDS011;36672;50.710;12.498;2023-02-04T11:41:03;2.15;;;0.95;;
49314;SDS011;36672;50.710;12.498;2023-02-04T11:43:33;1.75;;;0.80;;
49314;SDS011;36672;50.710;12.498;2023-02-04T11:46:12;1.17;;;1.00;;
49314;SDS011;36672;50.710;12.498;2023-02-04T11:48:40;2.40;;;0.80;;
49314;SDS011;36672;50.710;12.498;2023-02-04T11:51:10;1.70;;;0.80;;
49314;SDS011;36672;50.710;12.498;2023-02-04T11:53:40;1.73;;;0.65;;
49314;SDS011;36672;50.710;12.498;2023-02-04T11:56:06;1.02;;;0.70;;
49314;SDS011;36672;50.710;12.498;2023-02-04T11:58:31;1.58;;;0.90;;
49314;SDS011;36672;50.710;12.498;2023-02-04T12:00:57;1.73;;;1.00;;
49314;SDS011;36672;50.710;12.498;2023-02-04T12:03:25;1.90;;;0.80;;
49314;SDS011;36672;50.710;12.498;2023-02-04T12:05:54;1.48;;;0.80;;
49314;SDS011;36672;50.710;12.498;2023-02-04T12:13:54;1.10;;;0.70;;
49314;SDS011;36672;50.710;12.498;2023-02-04T12:16:21;2.10;;;1.05;;
49314;SDS011;36672;50.710;12.498;2023-02-04T12:18:48;1.98;;;1.10;;
49314;SDS011;36672;50.710;12.498;2023-02-04T12:21:14;1.55;;;1.13;;
49314;SDS011;36672;50.710;12.498;2023-02-04T12:23:39;1.70;;;0.80;;
49314;SDS011;36672;50.710;12.498;2023-02-04T12:26:06;2.97;;;1.25;;
49314;SDS011;36672;50.710;12.498;2023-02-04T12:28:32;0.98;;;0.80;;
49314;SDS011;36672;50.710;12.498;2023-02-04T12:30:58;1.92;;;1.00;;
49314;SDS011;36672;50.710;12.498;2023-02-04T12:33:23;3.58;;;1.10;;
49314;SDS011;36672;50.710;12.498;2023-02-04T12:35:49;1.20;;;0.82;;
49314;SDS011;36672;50.710;12.498;2023-02-04T12:38:14;1.52;;;0.80;;
49314;SDS011;36672;50.710;12.498;2023-02-04T12:40:39;1.00;;;0.77;;
49314;SDS011;36672;50.710;12.498;2023-02-04T12:43:05;2.20;;;0.80;;
49314;SDS011;36672;50.710;12.498;2023-02-04T12:45:31;3.15;;;0.90;;
49314;SDS011;36672;50.710;12.498;2023-02-04T12:47:56;3.15;;;0.90;;
49314;SDS011;36672;50.710;12.498;2023-02-04T12:50:22;3.25;;;0.80;;
49314;SDS011;36672;50.710;12.498;2023-02-04T12:52:54;1.20;;;0.80;;
49314;SDS011;36672;50.710;12.498;2023-02-04T12:55:22;1.25;;;0.77;;
49314;SDS011;36672;50.710;12.498;2023-02-04T12:57:49;2.35;;;0.85;;
49314;SDS011;36672;50.710;12.498;2023-02-04T13:00:15;1.17;;;0.75;;
49314;SDS011;36672;50.710;12.498;2023-02-04T13:02:42;1.27;;;0.77;;
49314;SDS011;36672;50.710;12.498;2023-02-04T13:05:08;1.00;;;0.60;;
49314;SDS011;36672;50.710;12.498;2023-02-04T13:07:34;0.93;;;0.65;;
49314;SDS011;36672;50.710;12.498;2023-02-04T13:10:00;2.70;;;0.60;;
49314;SDS011;36672;50.710;12.498;2023-02-04T13:12:25;1.75;;;0.70;;
49314;SDS011;36672;50.710;12.498;2023-02-04T13:14:50;0.93;;;0.60;;
49314;SDS011;36672;50.710;12.498;2023-02-04T13:17:16;1.80;;;0.85;;
49314;SDS011;36672;50.710;12.498;2023-02-04T13:19:41;1.10;;;0.70;;
49314;SDS011;36672;50.710;12.498;2023-02-04T13:22:07;1.23;;;0.68;;
49314;SDS011;36672;50.710;12.498;2023-02-04T13:24:32;2.17;;;0.90;;
49314;SDS011;36672;50.710;12.498;2023-02-04T13:26:57;1.25;;;0.60;;
49314;SDS011;36672;50.710;12.498;2023-02-04T13:29:23;1.15;;;0.70;;
49314;SDS011;36672;50.710;12.498;2023-02-04T13:31:48;1.23;;;0.68;;
49314;SDS011;36672;50.710;12.498;2023-02-04T13:34:14;2.70;;;0.80;;
49314;SDS011;36672;50.710;12.498;2023-02-04T13:36:39;1.55;;;0.80;;
49314;SDS011;36672;50.710;12.498;2023-02-04T13:39:04;1.25;;;0.70;;
49314;SDS011;36672;50.710;12.498;2023-02-04T13:41:30;1.55;;;0.80;;
49314;SDS011;36672;50.710;12.498;2023-02-04T13:43:56;1.17;;;0.57;;
49314;SDS011;36672;50.710;12.498;2023-02-04T13:46:22;0.90;;;0.63;;
49314;SDS011;36672;50.710;12.498;2023-02-04T13:48:48;1.45;;;0.70;;
49314;SDS011;36672;50.710;12.498;2023-02-04T13:51:14;2.72;;;0.80;;
49314;SDS011;36672;50.710;12.498;2023-02-04T13:53:40;1.45;;;0.65;;
49314;SDS011;36672;50.710;12.498;2023-02-04T13:56:05;1.10;;;0.75;;
49314;SDS011;36672;50.710;12.498;2023-02-04T13:58:31;1.95;;;0.73;;
49314;SDS011;36672;50.710;12.498;2023-02-04T14:00:56;1.85;;;0.77;;
49314;SDS011;36672;50.710;12.498;2023-02-04T14:03:26;1.13;;;0.50;;
49314;SDS011;36672;50.710;12.498;2023-02-04T14:05:53;1.70;;;0.80;;
49314;SDS011;36672;50.710;12.498;2023-02-04T14:08:18;2.15;;;0.73;;
49314;SDS011;36672;50.710;12.498;2023-02-04T14:10:45;1.00;;;0.60;;
49314;SDS011;36672;50.710;12.498;2023-02-04T14:13:10;1.90;;;0.70;;
49314;SDS011;36672;50.710;12.498;2023-02-04T14:15:36;2.30;;;0.80;;
49314;SDS011;36672;50.710;12.498;2023-02-04T14:18:02;1.15;;;0.82;;
49314;SDS011;36672;50.710;12.498;2023-02-04T14:20:28;2.22;;;0.90;;
49314;SDS011;36672;50.710;12.498;2023-02-04T14:22:54;2.47;;;0.70;;
49314;SDS011;36672;50.710;12.498;2023-02-04T14:25:19;1.00;;;0.70;;
49314;SDS011;36672;50.710;12.498;2023-02-04T14:27:45;1.92;;;1.00;;
49314;SDS011;36672;50.710;12.498;2023-02-04T14:30:31;2.63;;;0.80;;
49314;SDS011;36672;50.710;12.498;2023-02-04T14:32:56;2.22;;;0.88;;
49314;SDS011;36672;50.710;12.498;2023-02-04T14:35:22;1.52;;;0.60;;
49314;SDS011;36672;50.710;12.498;2023-02-04T14:37:48;1.75;;;1.10;;
49314;SDS011;36672;50.710;12.498;2023-02-04T14:40:14;1.77;;;0.77;;
49314;SDS011;36672;50.710;12.498;2023-02-04T14:42:40;1.67;;;0.85;;
49314;SDS011;36672;50.710;12.498;2023-02-04T14:45:06;0.98;;;0.70;;
49314;SDS011;36672;50.710;12.498;2023-02-04T14:47:34;1.90;;;1.27;;
49314;SDS011;36672;50.710;12.498;2023-02-04T14:49:59;4.07;;;1.30;;
49314;SDS011;36672;50.710;12.498;2023-02-04T14:52:25;1.92;;;1.10;;
49314;SDS011;36672;50.710;12.498;2023-02-04T14:54:50;3.30;;;1.35;;